createdAt,value
2019-02-22T00:00:34.386Z,76.26
2019-02-22T00:01:34.389Z,75.95
2019-02-22T00:02:34.363Z,77.23
2019-02-22T00:03:34.361Z,77.75
2019-02-22T00:04:34.344Z,77.54
2019-02-22T00:05:34.334Z,77.23
2019-02-22T00:06:34.322Z,77.33
2019-02-22T00:07:34.324Z,77.33
2019-02-22T00:08:34.302Z,77.64
2019-02-22T00:09:34.293Z,76.81
2019-02-22T00:10:34.279Z,77.09
2019-02-22T00:11:34.266Z,76.99
2019-02-22T00:12:34.257Z,77.09
2019-02-22T00:13:34.273Z,77.20
2019-02-22T00:14:34.235Z,76.89
2019-02-22T00:15:36.294Z,77.02
2019-02-22T00:16:34.229Z,77.02
2019-02-22T00:17:34.206Z,77.33
2019-02-22T00:18:34.192Z,77.23
2019-02-22T00:19:34.360Z,77.33
2019-02-22T00:20:34.174Z,77.61
2019-02-22T00:21:34.169Z,77.44
2019-02-22T00:22:34.149Z,77.61
2019-02-22T00:23:34.138Z,77.61
2019-02-22T00:24:34.128Z,76.89
2019-02-22T00:25:34.137Z,77.09
2019-02-22T00:26:34.114Z,77.09
2019-02-22T00:27:34.101Z,77.06
2019-02-22T00:28:34.088Z,76.99
2019-02-22T00:29:34.073Z,77.20
2019-02-22T00:30:34.066Z,76.89
2019-02-22T00:31:34.067Z,77.02
2019-02-22T00:32:34.041Z,77.54
2019-02-22T00:33:34.034Z,77.23
2019-02-22T00:34:34.034Z,77.33
2019-02-22T00:35:34.023Z,77.44
2019-02-22T00:36:34.081Z,78.09
2019-02-22T00:37:34.008Z,78.20
2019-02-22T00:38:33.977Z,78.27
2019-02-22T00:39:33.969Z,78.27
2019-02-22T00:40:33.960Z,78.58
2019-02-22T00:41:33.945Z,78.72
2019-02-22T00:42:33.936Z,78.27
2019-02-22T00:43:33.943Z,78.61
2019-02-22T00:44:33.915Z,78.41
2019-02-22T00:45:33.904Z,78.68
2019-02-22T00:46:33.891Z,78.82
2019-02-22T00:47:33.880Z,78.78
2019-02-22T00:48:33.871Z,79.34
2019-02-22T00:49:33.880Z,79.34
2019-02-22T00:50:33.848Z,79.41
2019-02-22T00:51:33.844Z,78.78
2019-02-22T00:52:33.826Z,78.47
2019-02-22T00:53:33.817Z,78.41
2019-02-22T00:54:33.809Z,78.51
2019-02-22T00:55:33.810Z,78.51
2019-02-22T00:56:33.784Z,78.41
2019-02-22T00:57:33.775Z,78.27
2019-02-22T00:58:33.766Z,78.37
2019-02-22T00:59:33.755Z,77.85
2019-02-22T01:00:33.743Z,77.95
2019-02-22T01:01:33.749Z,78.51
2019-02-22T01:02:33.721Z,78.47
2019-02-22T01:03:33.715Z,78.61
2019-02-22T01:04:33.698Z,78.41
2019-02-22T01:05:33.692Z,78.47
2019-02-22T01:06:33.676Z,78.51
2019-02-22T01:07:33.679Z,78.68
2019-02-22T01:08:33.656Z,79.41
2019-02-22T01:09:33.643Z,79.20
2019-02-22T01:10:33.631Z,79.20
2019-02-22T01:11:33.624Z,79.44
2019-02-22T01:12:33.611Z,79.41
2019-02-22T01:13:33.619Z,79.30
2019-02-22T01:14:33.592Z,79.13
2019-02-22T01:15:33.579Z,79.41
2019-02-22T01:16:33.570Z,79.76
2019-02-22T01:17:33.560Z,79.24
2019-02-22T01:18:33.547Z,79.41
2019-02-22T01:19:33.566Z,79.24
2019-02-22T01:20:33.535Z,79.24
2019-02-22T01:21:33.523Z,79.61
2019-02-22T01:22:33.511Z,79.24
2019-02-22T01:23:33.517Z,79.20
2019-02-22T01:24:33.485Z,79.61
2019-02-22T01:25:33.529Z,79.51
2019-02-22T01:26:33.466Z,78.89
2019-02-22T01:27:33.453Z,79.61
2019-02-22T01:28:33.443Z,79.30
2019-02-22T01:29:33.439Z,79.30
2019-02-22T01:30:33.421Z,79.30
2019-02-22T01:31:33.421Z,79.30
2019-02-22T01:32:33.401Z,79.30
2019-02-22T01:33:33.384Z,79.41
2019-02-22T01:34:33.379Z,79.30
2019-02-22T01:35:33.370Z,79.20
2019-02-22T01:36:33.367Z,79.30
2019-02-22T01:37:33.367Z,79.27
2019-02-22T01:38:33.340Z,79.41
2019-02-22T01:39:33.322Z,79.61
2019-02-22T01:40:43.004Z,79.38
2019-02-22T01:41:34.299Z,79.38
2019-02-22T01:42:33.300Z,79.79
2019-02-22T01:43:33.564Z,79.41
2019-02-22T01:44:33.271Z,78.68
2019-02-22T01:45:33.259Z,78.34
2019-02-22T01:46:33.261Z,78.58
2019-02-22T01:47:33.240Z,78.65
2019-02-22T01:48:33.230Z,78.55
2019-02-22T01:49:33.241Z,78.23
2019-02-22T01:50:33.207Z,77.92
2019-02-22T01:51:33.195Z,78.13
2019-02-22T01:52:33.180Z,77.72
2019-02-22T01:53:33.173Z,78.09
2019-02-22T01:54:33.159Z,77.78
2019-02-22T01:55:33.162Z,77.68
2019-02-22T01:56:33.150Z,77.16
2019-02-22T01:57:33.131Z,77.54
2019-02-22T01:58:33.122Z,76.71
2019-02-22T01:59:33.108Z,77.12
2019-02-22T02:00:33.095Z,77.12
2019-02-22T02:01:33.098Z,77.02
2019-02-22T02:02:33.077Z,76.81
2019-02-22T02:03:33.066Z,76.71
2019-02-22T02:04:33.053Z,76.92
2019-02-22T02:05:33.041Z,76.92
2019-02-22T02:06:33.031Z,77.58
2019-02-22T02:07:33.038Z,77.26
2019-02-22T02:08:33.009Z,77.33
2019-02-22T02:09:32.999Z,77.37
2019-02-22T02:10:32.990Z,77.68
2019-02-22T02:11:32.974Z,78.09
2019-02-22T02:12:32.970Z,78.09
2019-02-22T02:13:32.967Z,78.20
2019-02-22T02:14:32.951Z,77.89
2019-02-22T02:15:32.935Z,77.89
2019-02-22T02:16:32.923Z,77.89
2019-02-22T02:17:32.912Z,77.99
2019-02-22T02:18:32.904Z,78.30
2019-02-22T02:19:32.907Z,78.61
2019-02-22T02:20:32.902Z,78.30
2019-02-22T02:21:32.868Z,78.20
2019-02-22T02:22:32.859Z,78.72
2019-02-22T02:23:32.849Z,78.41
2019-02-22T02:24:32.836Z,78.61
2019-02-22T02:25:32.842Z,78.41
2019-02-22T02:26:32.857Z,78.41
2019-02-22T02:27:32.804Z,78.30
2019-02-22T02:28:32.791Z,78.20
2019-02-22T02:29:32.785Z,78.20
2019-02-22T02:30:32.770Z,78.51
2019-02-22T02:31:32.780Z,78.41
2019-02-22T02:32:32.749Z,78.51
2019-02-22T02:33:32.740Z,77.95
2019-02-22T02:34:32.731Z,78.16
2019-02-22T02:35:32.718Z,77.75
2019-02-22T02:36:32.705Z,78.16
2019-02-22T02:37:32.719Z,77.95
2019-02-22T02:38:32.687Z,77.64
2019-02-22T02:39:32.677Z,77.33
2019-02-22T02:40:32.666Z,78.06
2019-02-22T02:41:32.655Z,77.54
2019-02-22T02:42:32.643Z,77.44
2019-02-22T02:43:32.651Z,77.64
2019-02-22T02:44:32.619Z,77.33
2019-02-22T02:45:32.611Z,77.95
2019-02-22T02:46:32.600Z,77.85
2019-02-22T02:47:32.593Z,78.16
2019-02-22T02:48:32.578Z,78.02
2019-02-22T02:49:32.585Z,77.64
2019-02-22T02:50:32.564Z,77.85
2019-02-22T02:51:32.546Z,77.85
2019-02-22T02:52:32.536Z,77.95
2019-02-22T02:53:32.523Z,78.16
2019-02-22T02:54:32.518Z,78.16
2019-02-22T02:55:32.516Z,77.75
2019-02-22T02:56:32.491Z,77.95
2019-02-22T02:57:32.483Z,78.16
2019-02-22T02:58:32.473Z,78.12
2019-02-22T02:59:32.467Z,77.75
2019-02-22T03:00:32.451Z,77.95
2019-02-22T03:01:32.461Z,78.16
2019-02-22T03:02:32.431Z,78.06
2019-02-22T03:03:32.419Z,78.37
2019-02-22T03:04:32.409Z,78.58
2019-02-22T03:05:32.396Z,78.89
2019-02-22T03:06:32.390Z,78.78
2019-02-22T03:07:32.410Z,78.78
2019-02-22T03:08:32.366Z,79.41
2019-02-22T03:09:32.356Z,78.99
2019-02-22T03:10:32.345Z,79.30
2019-02-22T03:11:32.335Z,79.20
2019-02-22T03:12:32.325Z,79.51
2019-02-22T03:13:32.330Z,79.20
2019-02-22T03:14:32.304Z,79.41
2019-02-22T03:15:32.291Z,78.99
2019-02-22T03:16:32.277Z,79.20
2019-02-22T03:17:32.273Z,79.30
2019-02-22T03:18:32.262Z,79.20
2019-02-22T03:19:32.265Z,79.41
2019-02-22T03:20:32.240Z,79.20
2019-02-22T03:21:32.228Z,79.37
2019-02-22T03:22:32.221Z,79.37
2019-02-22T03:23:32.203Z,79.27
2019-02-22T03:24:32.194Z,79.37
2019-02-22T03:25:32.215Z,79.37
2019-02-22T03:26:32.178Z,79.10
2019-02-22T03:27:32.162Z,79.30
2019-02-22T03:28:32.156Z,79.27
2019-02-22T03:29:32.152Z,79.27
2019-02-22T03:30:32.146Z,79.30
2019-02-22T03:31:32.164Z,79.47
2019-02-22T03:32:32.110Z,79.78
2019-02-22T03:33:32.107Z,80.13
2019-02-22T03:34:32.094Z,80.02
2019-02-22T03:35:32.079Z,80.44
2019-02-22T03:36:32.069Z,80.58
2019-02-22T03:37:32.072Z,80.13
2019-02-22T03:38:32.048Z,80.96
2019-02-22T03:39:32.039Z,80.79
2019-02-22T03:40:32.034Z,80.58
2019-02-22T03:41:33.439Z,81.30
2019-02-22T03:42:32.012Z,81.72
2019-02-22T03:43:32.026Z,81.51
2019-02-22T03:44:31.981Z,81.62
2019-02-22T03:45:31.972Z,81.51
2019-02-22T03:46:31.966Z,81.20
2019-02-22T03:47:31.947Z,81.48
2019-02-22T03:48:31.934Z,81.30
2019-02-22T03:49:32.698Z,81.30
2019-02-22T03:50:31.919Z,81.16
2019-02-22T03:51:31.907Z,80.85
2019-02-22T03:52:31.897Z,81.20
2019-02-22T03:53:31.897Z,81.27
2019-02-22T03:54:31.886Z,81.51
2019-02-22T03:55:31.875Z,81.27
2019-02-22T03:56:31.859Z,81.06
2019-02-22T03:57:31.865Z,80.75
2019-02-22T03:58:31.829Z,80.51
2019-02-22T03:59:31.822Z,80.54
2019-02-22T04:00:31.809Z,80.75
2019-02-22T04:01:31.820Z,80.65
2019-02-22T04:02:31.785Z,80.65
2019-02-22T04:03:31.775Z,80.75
2019-02-22T04:04:31.768Z,80.75
2019-02-22T04:05:31.759Z,80.71
2019-02-22T04:06:31.743Z,80.82
2019-02-22T04:07:31.752Z,81.27
2019-02-22T04:08:31.723Z,80.51
2019-02-22T04:09:31.724Z,81.44
2019-02-22T04:10:31.703Z,80.96
2019-02-22T04:11:31.687Z,80.71
2019-02-22T04:12:31.682Z,80.40
2019-02-22T04:13:31.685Z,80.61
2019-02-22T04:14:31.668Z,80.82
2019-02-22T04:15:31.652Z,80.61
2019-02-22T04:16:31.639Z,80.40
2019-02-22T04:17:31.753Z,80.19
2019-02-22T04:18:31.623Z,80.71
2019-02-22T04:19:31.625Z,80.71
2019-02-22T04:20:31.599Z,80.51
2019-02-22T04:21:31.580Z,80.09
2019-02-22T04:22:31.576Z,80.40
2019-02-22T04:23:31.563Z,80.51
2019-02-22T04:24:31.555Z,79.99
2019-02-22T04:25:31.565Z,80.40
2019-02-22T04:26:31.526Z,80.61
2019-02-22T04:27:31.551Z,80.71
2019-02-22T04:28:31.517Z,80.61
2019-02-22T04:29:31.499Z,80.71
2019-02-22T04:30:31.483Z,80.61
2019-02-22T04:31:31.556Z,80.92
2019-02-22T04:32:31.468Z,81.13
2019-02-22T04:33:31.463Z,81.44
2019-02-22T04:34:31.442Z,81.13
2019-02-22T04:35:31.434Z,81.23
2019-02-22T04:36:31.421Z,81.48
2019-02-22T04:37:31.455Z,81.23
2019-02-22T04:38:31.406Z,81.54
2019-02-22T04:39:31.390Z,81.58
2019-02-22T04:40:31.378Z,81.79
2019-02-22T04:41:31.370Z,81.34
2019-02-22T04:42:31.366Z,81.99
2019-02-22T04:43:31.368Z,81.89
2019-02-22T04:44:31.340Z,81.68
2019-02-22T04:45:31.334Z,81.79
2019-02-22T04:46:31.325Z,81.58
2019-02-22T04:47:31.305Z,81.58
2019-02-22T04:48:31.300Z,81.89
2019-02-22T04:49:31.303Z,81.27
2019-02-22T04:50:31.273Z,81.68
2019-02-22T04:51:31.265Z,82.03
2019-02-22T04:52:31.259Z,81.99
2019-02-22T04:53:31.242Z,81.99
2019-02-22T04:54:31.259Z,82.03
2019-02-22T04:55:31.245Z,82.34
2019-02-22T04:56:31.237Z,82.45
2019-02-22T04:57:31.201Z,82.31
2019-02-22T04:58:31.207Z,82.62
2019-02-22T04:59:31.180Z,82.34
2019-02-22T05:00:31.164Z,82.76
2019-02-22T05:01:31.181Z,83.28
2019-02-22T05:02:31.143Z,82.97
2019-02-22T05:03:31.139Z,83.07
2019-02-22T05:04:31.125Z,83.38
2019-02-22T05:05:31.112Z,83.28
2019-02-22T05:06:31.103Z,83.28
2019-02-22T05:07:31.150Z,83.07
2019-02-22T05:08:31.085Z,83.03
2019-02-22T05:09:31.085Z,82.62
2019-02-22T05:10:31.061Z,82.97
2019-02-22T05:11:31.054Z,82.72
2019-02-22T05:12:31.039Z,82.72
2019-02-22T05:13:31.038Z,82.41
2019-02-22T05:14:31.019Z,82.41
2019-02-22T05:15:31.008Z,82.17
2019-02-22T05:16:31.028Z,81.96
2019-02-22T05:17:38.046Z,82.06
2019-02-22T05:18:31.061Z,82.06
2019-02-22T05:19:30.987Z,82.17
2019-02-22T05:20:30.958Z,82.48
2019-02-22T05:21:30.938Z,82.27
2019-02-22T05:22:30.941Z,82.48
2019-02-22T05:23:30.934Z,82.48
2019-02-22T05:24:30.920Z,82.58
2019-02-22T05:25:30.912Z,82.17
2019-02-22T05:26:30.892Z,82.79
2019-02-22T05:27:30.889Z,82.79
2019-02-22T05:28:30.867Z,82.58
2019-02-22T05:29:30.853Z,82.58
2019-02-22T05:30:30.854Z,82.58
2019-02-22T05:31:30.851Z,82.48
2019-02-22T05:32:30.822Z,82.48
2019-02-22T05:33:30.879Z,82.68
2019-02-22T05:34:30.805Z,82.68
2019-02-22T05:35:30.789Z,82.48
2019-02-22T05:36:30.779Z,82.37
2019-02-22T05:37:30.792Z,82.79
2019-02-22T05:38:30.765Z,82.48
2019-02-22T05:39:30.751Z,82.58
2019-02-22T05:40:30.735Z,82.37
2019-02-22T05:41:30.730Z,82.27
2019-02-22T05:42:30.716Z,82.34
2019-02-22T05:43:30.728Z,82.06
2019-02-22T05:44:30.718Z,82.06
2019-02-22T05:45:30.719Z,82.23
2019-02-22T05:46:30.684Z,82.44
2019-02-22T05:47:30.685Z,82.34
2019-02-22T05:48:30.659Z,82.23
2019-02-22T05:49:30.708Z,82.34
2019-02-22T05:50:30.638Z,82.44
2019-02-22T05:51:30.658Z,82.37
2019-02-22T05:52:30.612Z,82.75
2019-02-22T05:53:30.623Z,82.75
2019-02-22T05:54:30.587Z,82.65
2019-02-22T05:55:30.603Z,82.44
2019-02-22T05:56:30.568Z,82.54
2019-02-22T05:57:30.567Z,82.34
2019-02-22T05:58:30.552Z,81.92
2019-02-22T05:59:30.552Z,81.05
2019-02-22T06:00:30.530Z,81.57
2019-02-22T06:01:30.571Z,81.99
2019-02-22T06:02:30.511Z,81.37
2019-02-22T06:03:30.511Z,81.26
2019-02-22T06:04:30.483Z,81.05
2019-02-22T06:05:30.486Z,80.22
2019-02-22T06:06:30.474Z,80.85
2019-02-22T06:07:30.509Z,81.47
2019-02-22T06:08:30.444Z,81.12
2019-02-22T06:09:30.431Z,81.05
2019-02-22T06:10:30.445Z,81.47
2019-02-22T06:11:30.448Z,81.05
2019-02-22T06:12:34.596Z,80.29
2019-02-22T06:13:30.418Z,80.64
2019-02-22T06:14:30.376Z,80.85
2019-02-22T06:15:31.558Z,80.50
2019-02-22T06:16:30.361Z,80.54
2019-02-22T06:17:30.351Z,80.85
2019-02-22T06:18:30.339Z,81.05
2019-02-22T06:19:30.390Z,81.16
2019-02-22T06:20:30.309Z,81.26
2019-02-22T06:21:30.335Z,80.85
2019-02-22T06:22:30.369Z,81.47
2019-02-22T06:23:30.346Z,81.16
2019-02-22T06:24:30.272Z,81.88
2019-02-22T06:25:30.403Z,81.26
2019-02-22T06:26:30.498Z,81.43
2019-02-22T06:27:30.237Z,81.16
2019-02-22T06:28:30.232Z,81.33
2019-02-22T06:29:30.228Z,81.43
2019-02-22T06:30:30.208Z,81.12
2019-02-22T06:31:30.224Z,81.33
2019-02-22T06:32:30.196Z,81.02
2019-02-22T06:33:30.179Z,81.43
2019-02-22T06:34:30.166Z,81.12
2019-02-22T06:35:30.176Z,81.12
2019-02-22T06:36:30.159Z,81.23
2019-02-22T06:37:30.147Z,81.12
2019-02-22T06:38:30.146Z,80.91
2019-02-22T06:39:30.120Z,80.91
2019-02-22T06:40:30.104Z,80.91
2019-02-22T06:41:30.133Z,80.50
2019-02-22T06:42:30.078Z,80.77
2019-02-22T06:43:30.078Z,80.50
2019-02-22T06:44:30.055Z,80.46
2019-02-22T06:45:30.042Z,80.81
2019-02-22T06:46:30.040Z,80.29
2019-02-22T06:47:30.029Z,80.91
2019-02-22T06:48:30.013Z,80.77
2019-02-22T06:49:30.104Z,81.09
2019-02-22T06:50:33.640Z,80.77
2019-02-22T06:51:29.978Z,80.77
2019-02-22T06:52:29.965Z,80.67
2019-02-22T06:53:29.958Z,80.98
2019-02-22T06:54:29.975Z,81.29
2019-02-22T06:55:29.953Z,80.15
2019-02-22T06:56:29.948Z,80.46
2019-02-22T06:57:29.919Z,80.15
2019-02-22T06:58:29.903Z,80.57
2019-02-22T06:59:29.894Z,80.53
2019-02-22T07:00:29.981Z,80.57
2019-02-22T07:01:29.894Z,81.46
2019-02-22T07:02:29.885Z,81.56
2019-02-22T07:03:29.846Z,80.63
2019-02-22T07:04:29.859Z,80.43
2019-02-22T07:05:29.828Z,80.32
2019-02-22T07:06:29.823Z,80.22
2019-02-22T07:07:29.824Z,79.56
2019-02-22T07:08:29.795Z,79.91
2019-02-22T07:09:29.777Z,79.19
2019-02-22T07:10:29.793Z,79.05
2019-02-22T07:11:29.759Z,79.05
2019-02-22T07:12:29.775Z,79.25
2019-02-22T07:13:29.763Z,78.94
2019-02-22T07:14:29.732Z,78.80
2019-02-22T07:15:29.726Z,79.25
2019-02-22T07:16:29.724Z,78.42
2019-02-22T07:17:29.702Z,79.11
2019-02-22T07:18:29.681Z,79.01
2019-02-22T07:19:29.694Z,79.11
2019-02-22T07:20:29.674Z,78.59
2019-02-22T07:21:40.369Z,78.28
2019-02-22T07:22:30.659Z,78.08
2019-02-22T07:23:29.627Z,77.98
2019-02-22T07:24:29.642Z,78.39
2019-02-22T07:25:29.634Z,79.22
2019-02-22T07:26:29.598Z,77.53
2019-02-22T07:27:29.598Z,77.98
2019-02-22T07:28:29.591Z,77.56
2019-02-22T07:29:29.563Z,78.18
2019-02-22T07:30:29.552Z,78.05
2019-02-22T07:31:29.560Z,77.84
2019-02-22T07:32:29.530Z,77.63
2019-02-22T07:33:29.522Z,77.63
2019-02-22T07:34:29.511Z,77.32
2019-02-22T07:35:29.498Z,76.98
2019-02-22T07:36:29.488Z,76.90
2019-02-22T07:37:29.498Z,77.32
2019-02-22T07:38:29.462Z,76.87
2019-02-22T07:39:29.467Z,76.98
2019-02-22T07:40:29.446Z,76.87
2019-02-22T07:41:29.433Z,77.49
2019-02-22T07:42:29.423Z,76.56
2019-02-22T07:43:29.436Z,76.46
2019-02-22T07:44:29.401Z,76.56
2019-02-22T07:45:29.391Z,76.35
2019-02-22T07:46:29.382Z,76.77
2019-02-22T07:47:29.404Z,76.15
2019-02-22T07:48:29.364Z,75.53
2019-02-22T07:49:29.364Z,76.12
2019-02-22T07:50:29.337Z,76.46
2019-02-22T07:51:29.327Z,76.73
2019-02-22T07:52:29.315Z,75.01
2019-02-22T07:53:29.305Z,75.84
2019-02-22T07:54:29.292Z,76.73
2019-02-22T07:55:29.298Z,76.73
2019-02-22T07:56:29.274Z,76.73
2019-02-22T07:57:29.262Z,75.29
2019-02-22T07:58:29.253Z,75.70
2019-02-22T07:59:29.241Z,76.84
2019-02-22T08:00:29.227Z,76.01
2019-02-22T08:01:29.238Z,75.49
2019-02-22T08:02:29.205Z,75.36
2019-02-22T08:03:29.195Z,74.95
2019-02-22T08:04:29.186Z,75.26
2019-02-22T08:05:29.173Z,75.46
2019-02-22T08:06:29.160Z,74.84
2019-02-22T08:07:29.166Z,74.71
2019-02-22T08:08:29.143Z,74.40
2019-02-22T08:09:29.134Z,74.71
2019-02-22T08:10:29.125Z,74.40
2019-02-22T08:11:29.109Z,74.40
2019-02-22T08:12:29.099Z,74.36
2019-02-22T08:13:29.102Z,73.95
2019-02-22T08:14:29.076Z,73.61
2019-02-22T08:15:29.063Z,72.58
2019-02-22T08:16:29.054Z,72.37
2019-02-22T08:17:29.044Z,72.75
2019-02-22T08:18:29.031Z,71.62
2019-02-22T08:19:29.037Z,72.24
2019-02-22T08:20:29.013Z,71.41
2019-02-22T08:21:29.000Z,71.20
2019-02-22T08:22:28.990Z,71.51
2019-02-22T08:23:28.981Z,71.07
2019-02-22T08:24:28.968Z,71.07
2019-02-22T08:25:28.974Z,71.48
2019-02-22T08:26:28.948Z,71.00
2019-02-22T08:27:28.937Z,72.24
2019-02-22T08:28:28.929Z,71.62
2019-02-22T08:29:28.916Z,72.03
2019-02-22T08:30:28.907Z,71.51
2019-02-22T08:31:28.910Z,71.37
2019-02-22T08:32:28.884Z,69.70
2019-02-22T08:33:28.873Z,70.01
2019-02-22T08:34:28.864Z,70.21
2019-02-22T08:35:28.852Z,70.01
2019-02-22T08:36:28.839Z,69.90
2019-02-22T08:37:28.848Z,69.90
2019-02-22T08:38:28.825Z,70.52
2019-02-22T08:39:28.809Z,70.01
2019-02-22T08:40:28.797Z,69.70
2019-02-22T08:41:28.785Z,69.90
2019-02-22T08:42:28.775Z,70.52
2019-02-22T08:43:31.828Z,69.90
2019-02-22T08:44:28.753Z,68.74
2019-02-22T08:45:28.746Z,68.85
2019-02-22T08:46:28.727Z,68.64
2019-02-22T08:47:28.722Z,68.91
2019-02-22T08:48:28.709Z,68.88
2019-02-22T08:49:28.711Z,67.41
2019-02-22T08:50:28.692Z,67.32
2019-02-22T08:51:28.674Z,67.79
2019-02-22T08:52:28.664Z,67.35
2019-02-22T08:53:28.652Z,66.53
2019-02-22T08:54:28.642Z,65.61
2019-02-22T08:55:28.649Z,66.40
2019-02-22T08:56:28.623Z,65.37
2019-02-22T08:57:28.610Z,65.24
2019-02-22T08:58:28.602Z,64.76
2019-02-22T08:59:28.587Z,64.35
2019-02-22T09:00:28.575Z,65.37
2019-02-22T09:01:28.582Z,64.45
2019-02-22T09:02:28.553Z,64.35
2019-02-22T09:03:28.543Z,64.17
2019-02-22T09:04:28.579Z,64.61
2019-02-22T09:05:28.520Z,65.23
2019-02-22T09:06:28.514Z,65.88
2019-02-22T09:07:28.565Z,65.39
2019-02-22T09:08:28.536Z,64.61
2019-02-22T09:09:28.480Z,64.44
2019-02-22T09:10:28.468Z,64.95
2019-02-22T09:11:28.457Z,65.50
2019-02-22T09:12:28.453Z,65.29
2019-02-22T09:13:28.450Z,65.19
2019-02-22T09:14:28.426Z,65.88
2019-02-22T09:15:28.416Z,65.26
2019-02-22T09:16:28.403Z,65.47
2019-02-22T09:17:28.391Z,65.23
2019-02-22T09:18:28.381Z,64.31
2019-02-22T09:19:28.386Z,64.07
2019-02-22T09:20:28.358Z,62.65
2019-02-22T09:21:28.348Z,60.52
2019-02-22T09:22:28.337Z,60.17
2019-02-22T09:23:28.329Z,61.55
2019-02-22T09:24:28.313Z,62.48
2019-02-22T09:25:28.323Z,59.88
2019-02-22T09:26:28.295Z,55.84
2019-02-22T09:27:28.281Z,53.52
2019-02-22T09:28:28.272Z,53.02
2019-02-22T09:29:28.265Z,52.35
2019-02-22T09:30:28.249Z,51.01
2019-02-22T09:31:28.256Z,49.56
2019-02-22T09:32:28.227Z,49.69
2019-02-22T09:33:28.217Z,49.79
2019-02-22T09:34:28.204Z,49.44
2019-02-22T09:35:28.209Z,49.64
2019-02-22T09:36:28.185Z,49.16
2019-02-22T09:37:28.188Z,49.46
2019-02-22T09:38:28.162Z,49.44
2019-02-22T09:39:28.151Z,48.40
2019-02-22T09:40:28.137Z,48.38
2019-02-22T09:41:28.131Z,48.19
2019-02-22T09:42:28.118Z,49.26
2019-02-22T09:43:28.121Z,51.26
2019-02-22T09:44:28.095Z,52.08
2019-02-22T09:45:28.085Z,51.67
2019-02-22T09:46:28.077Z,51.03
2019-02-22T09:47:28.074Z,51.67
2019-02-22T09:48:28.053Z,52.89
2019-02-22T09:49:28.064Z,52.98
2019-02-22T09:50:28.026Z,52.08
2019-02-22T09:51:28.029Z,51.11
2019-02-22T09:52:28.009Z,50.17
2019-02-22T09:53:28.003Z,50.07
2019-02-22T09:54:27.984Z,49.56
2019-02-22T09:55:27.990Z,49.33
2019-02-22T09:56:27.958Z,49.46
2019-02-22T09:57:27.952Z,48.25
2019-02-22T09:58:27.942Z,46.56
2019-02-22T09:59:27.929Z,45.65
2019-02-22T10:00:27.920Z,47.03
2019-02-22T10:01:27.926Z,46.30
2019-02-22T10:02:27.901Z,47.14
2019-02-22T10:03:27.891Z,47.11
2019-02-22T10:04:27.884Z,46.48
2019-02-22T10:05:27.864Z,46.30
2019-02-22T10:06:27.854Z,46.65
2019-02-22T10:07:27.862Z,47.41
2019-02-22T10:08:27.831Z,49.20
2019-02-22T10:09:27.822Z,50.12
2019-02-22T10:10:27.812Z,50.83
2019-02-22T10:11:27.799Z,49.79
2019-02-22T10:12:27.786Z,49.16
2019-02-22T10:13:28.016Z,48.32
2019-02-22T10:14:28.609Z,47.89
2019-02-22T10:15:28.319Z,48.06
2019-02-22T10:16:27.784Z,50.32
2019-02-22T10:17:27.732Z,51.64
2019-02-22T10:18:27.722Z,52.86
2019-02-22T10:19:27.725Z,53.06
2019-02-22T10:20:27.706Z,54.13
2019-02-22T10:21:27.687Z,54.57
2019-02-22T10:22:27.678Z,54.85
2019-02-22T10:23:27.670Z,54.13
2019-02-22T10:24:27.655Z,54.57
2019-02-22T10:25:27.666Z,54.24
2019-02-22T10:26:27.634Z,53.96
2019-02-22T10:27:27.633Z,54.57
2019-02-22T10:28:27.617Z,54.97
2019-02-22T10:29:27.601Z,54.54
2019-02-22T10:30:27.595Z,54.31
2019-02-22T10:31:27.598Z,51.11
2019-02-22T10:32:27.615Z,49.99
2019-02-22T10:33:36.416Z,50.73
2019-02-22T10:34:28.545Z,50.70
2019-02-22T10:35:27.545Z,49.97
2019-02-22T10:36:27.531Z,50.62
2019-02-22T10:37:27.538Z,53.22
2019-02-22T10:38:27.509Z,52.48
2019-02-22T10:39:27.494Z,52.78
2019-02-22T10:40:27.482Z,53.02
2019-02-22T10:41:27.469Z,53.85
2019-02-22T10:42:27.460Z,53.67
2019-02-22T10:43:27.463Z,54.18
2019-02-22T10:44:27.438Z,54.69
2019-02-22T10:45:27.427Z,54.24
2019-02-22T10:46:27.415Z,53.93
2019-02-22T10:47:27.408Z,53.39
2019-02-22T10:48:27.439Z,52.98
2019-02-22T10:49:27.402Z,53.47
2019-02-22T10:50:27.373Z,53.67
2019-02-22T10:51:27.364Z,53.98
2019-02-22T10:52:27.367Z,53.75
2019-02-22T10:53:27.341Z,53.22
2019-02-22T10:54:27.327Z,49.37
2019-02-22T10:55:27.341Z,47.78
2019-02-22T10:56:28.296Z,48.31
2019-02-22T10:57:27.293Z,47.67
2019-02-22T10:58:27.283Z,48.23
2019-02-22T10:59:27.289Z,47.95
2019-02-22T11:00:27.262Z,50.40
2019-02-22T11:01:27.272Z,51.16
2019-02-22T11:02:27.240Z,50.73
2019-02-22T11:03:27.231Z,50.73
2019-02-22T11:04:27.218Z,50.63
2019-02-22T11:05:27.208Z,50.63
2019-02-22T11:06:27.195Z,52.28
2019-02-22T11:07:27.201Z,51.14
2019-02-22T11:08:27.173Z,50.81
2019-02-22T11:09:27.163Z,50.71
2019-02-22T11:10:27.159Z,51.57
2019-02-22T11:11:27.140Z,53.02
2019-02-22T11:12:27.131Z,53.27
2019-02-22T11:13:27.402Z,53.80
2019-02-22T11:14:30.161Z,54.11
2019-02-22T11:15:27.156Z,54.41
2019-02-22T11:16:27.448Z,54.24
2019-02-22T11:17:28.207Z,54.94
2019-02-22T11:18:27.194Z,54.61
2019-02-22T11:19:27.508Z,54.21
2019-02-22T11:20:27.401Z,54.28
2019-02-22T11:21:27.233Z,54.00
2019-02-22T11:22:27.092Z,53.88
2019-02-22T11:23:29.325Z,53.67
2019-02-22T11:24:27.147Z,54.18
2019-02-22T11:25:27.069Z,54.26
2019-02-22T11:26:28.088Z,53.45
2019-02-22T11:27:28.027Z,53.17
2019-02-22T11:28:27.293Z,53.85
2019-02-22T11:29:27.025Z,53.45
2019-02-22T11:30:27.268Z,53.98
2019-02-22T11:31:27.076Z,54.08
2019-02-22T11:32:26.983Z,54.87
2019-02-22T11:33:27.018Z,52.73
2019-02-22T11:34:27.279Z,54.08
2019-02-22T11:35:27.019Z,54.08
2019-02-22T11:36:27.237Z,54.51
2019-02-22T11:37:27.433Z,54.11
2019-02-22T11:38:26.999Z,54.72
2019-02-22T11:39:27.028Z,54.69
2019-02-22T11:40:26.925Z,54.18
2019-02-22T11:41:27.412Z,54.18
2019-02-22T11:42:27.026Z,53.88
2019-02-22T11:43:26.928Z,54.21
2019-02-22T11:44:26.910Z,54.54
2019-02-22T11:45:26.890Z,55.66
2019-02-22T11:46:26.965Z,55.73
2019-02-22T11:47:26.884Z,56.07
2019-02-22T11:48:26.806Z,56.47
2019-02-22T11:49:27.651Z,56.81
2019-02-22T11:50:26.940Z,56.81
2019-02-22T11:51:26.799Z,57.31
2019-02-22T11:52:28.927Z,56.77
2019-02-22T11:53:26.774Z,56.68
2019-02-22T11:54:27.469Z,56.55
2019-02-22T11:55:26.882Z,55.94
2019-02-22T11:56:27.048Z,55.94
2019-02-22T11:57:26.713Z,56.27
2019-02-22T11:58:26.745Z,56.77
2019-02-22T11:59:26.743Z,56.37
2019-02-22T12:00:26.732Z,57.90
2019-02-22T12:01:26.777Z,56.57
2019-02-22T12:02:26.818Z,56.47
2019-02-22T12:03:26.706Z,56.77
2019-02-22T12:04:26.652Z,57.29
2019-02-22T12:05:26.871Z,58.23
2019-02-22T12:06:26.912Z,58.71
2019-02-22T12:07:26.883Z,58.84
2019-02-22T12:08:26.670Z,59.14
2019-02-22T12:09:26.641Z,58.30
2019-02-22T12:10:26.565Z,58.61
2019-02-22T12:11:26.653Z,58.00
2019-02-22T12:12:26.549Z,58.61
2019-02-22T12:13:26.604Z,59.01
2019-02-22T12:14:26.581Z,58.40
2019-02-22T12:15:26.709Z,58.51
2019-02-22T12:16:27.391Z,58.89
2019-02-22T12:17:26.557Z,58.76
2019-02-22T12:18:26.473Z,57.64
2019-02-22T12:19:26.531Z,57.84
2019-02-22T12:20:26.533Z,58.25
2019-02-22T12:21:26.533Z,58.15
2019-02-22T12:22:26.495Z,57.74
2019-02-22T12:23:26.413Z,58.56
2019-02-22T12:24:26.447Z,58.38
2019-02-22T12:25:26.995Z,59.30
2019-02-22T12:26:26.370Z,58.69
2019-02-22T12:27:26.428Z,60.14
2019-02-22T12:28:26.607Z,59.30
2019-02-22T12:29:26.444Z,60.00
2019-02-22T12:30:26.357Z,59.91
2019-02-22T12:31:26.453Z,60.44
2019-02-22T12:32:26.454Z,60.11
2019-02-22T12:33:26.424Z,59.80
2019-02-22T12:34:26.407Z,59.50
2019-02-22T12:35:26.318Z,59.60
2019-02-22T12:36:26.328Z,60.14
2019-02-22T12:37:26.316Z,60.95
2019-02-22T12:38:28.169Z,61.97
2019-02-22T12:39:26.247Z,61.56
2019-02-22T12:40:26.202Z,61.97
2019-02-22T12:41:26.233Z,61.97
2019-02-22T12:42:26.256Z,62.37
2019-02-22T12:43:26.253Z,61.66
2019-02-22T12:44:26.294Z,61.43
2019-02-22T12:45:26.151Z,60.11
2019-02-22T12:46:26.179Z,60.59
2019-02-22T12:47:26.095Z,59.54
2019-02-22T12:48:26.143Z,59.95
2019-02-22T12:49:26.299Z,59.98
2019-02-22T12:50:26.191Z,59.88
2019-02-22T12:51:26.213Z,60.59
2019-02-22T12:52:26.062Z,60.92